Destinations Stavanger Airport Sola

Stavanger Airport Sola (ENZV / SVG)

Flights to Stavanger Airport Sola

Flight number From ETE Dispatch
SPY-3107 ENVA Trondheim Airport Værnes 01:30

Flights from Stavanger Airport Sola

Flight number To ETE Dispatch
SPY-3108 ENVA Trondheim Airport Værnes 01:30
About

Stavanger Airport Sola facts

Stavanger Airport Sola is located in Stavanger at an elevation of 8.8 meters or 29 feet.

Currently, Speedy Airlines serves 2 flights to and from Stavanger Airport Sola.

Detailed airport info

Route map

Weather

Current weather

METAR

METAR

Metar data retrieved Sunday, 21 July 2024 at 19:55 UTC

ENZV 211920Z 31007KT 3700 RA VV008 15/15 Q1008
Wind Temperature Low clouds warning
7 kt 15c Clouds lower than 1000ft and either broken, overcast or vertical visibility